Time;durP1;ratioP1;P1;durP2;ratioP2;P2;SDS_P1;SDS_P2;PMS_P1;PMS_P2;Temp;Humidity;BMP_temperature;BMP_pressure;BME280_temperature;BME280_humidity;BME280_pressure;Samples;Min_cycle;Max_cycle;Signal;HPM_P1;HPM_P2
2023/09/02 00:00:19;;;;;;;12.18;9.07;;;;;;;;;;4953075;28;20121;-75
2023/09/02 00:02:45;;;;;;;13.98;9.18;;;;;;;;;;4970680;28;20046;-75
2023/09/02 00:05:11;;;;;;;20.17;9.65;;;;;;;;;;4937396;28;20050;-75
2023/09/02 00:07:37;;;;;;;16.38;9.52;;;;;;;;;;4971002;28;20511;-74
2023/09/02 00:10:04;;;;;;;14.43;9.18;;;;;;;;;;4967395;28;20039;-74
2023/09/02 00:12:30;;;;;;;11.57;10.38;;;;;;;;;;4961116;28;20034;-73
2023/09/02 00:14:56;;;;;;;14.63;10.52;;;;;;;;;;4950122;28;20495;-73
2023/09/02 00:17:22;;;;;;;19.92;11.32;;;;;;;;;;4938398;28;20056;-74
2023/09/02 00:19:48;;;;;;;39.30;17.27;;;;;;;;;;4959812;28;20035;-74
2023/09/02 00:22:14;;;;;;;18.98;12.63;;;;;;;;;;4957080;28;20026;-75
2023/09/02 00:24:40;;;;;;;21.73;14.65;;;;;;;;;;4972740;28;20053;-73
2023/09/02 00:27:05;;;;;;;22.13;15.10;;;;;;;;;;4974253;28;20031;-74
2023/09/02 00:29:31;;;;;;;26.42;13.27;;;;;;;;;;4973401;28;20459;-74
2023/09/02 00:31:57;;;;;;;24.55;12.82;;;;;;;;;;4973468;28;20034;-74
2023/09/02 00:34:24;;;;;;;17.52;9.93;;;;;;;;;;4972680;28;20177;-74
2023/09/02 00:36:49;;;;;;;14.90;10.15;;;;;;;;;;4956604;28;20087;-74
2023/09/02 00:39:16;;;;;;;15.85;10.38;;;;;;;;;;4956530;28;20046;-75
2023/09/02 00:41:49;;;;;;;12.13;9.70;;;;;;;;;;4940711;28;20488;-72
2023/09/02 00:44:15;;;;;;;22.23;10.57;;;;;;;;;;4973567;28;20094;-74
2023/09/02 00:46:41;;;;;;;18.38;10.10;;;;;;;;;;4956632;28;20545;-73
2023/09/02 00:49:07;;;;;;;13.15;10.23;;;;;;;;;;4935987;29;20055;-75
2023/09/02 00:51:34;;;;;;;11.70;10.23;;;;;;;;;;4948907;28;20049;-74
2023/09/02 00:54:00;;;;;;;18.35;9.80;;;;;;;;;;4973918;28;20030;-74
2023/09/02 00:56:26;;;;;;;18.13;9.65;;;;;;;;;;4953185;28;20054;-75
2023/09/02 00:58:52;;;;;;;18.25;9.80;;;;;;;;;;4972253;28;20031;-74
2023/09/02 01:01:18;;;;;;;19.17;9.82;;;;;;;;;;4972592;28;20042;-74
2023/09/02 01:03:44;;;;;;;14.65;9.15;;;;;;;;;;4973746;28;20057;-74
2023/09/02 01:06:10;;;;;;;13.63;9.75;;;;;;;;;;4940223;28;20051;-75
2023/09/02 01:08:36;;;;;;;15.68;10.20;;;;;;;;;;4940586;28;20050;-74
2023/09/02 01:11:03;;;;;;;11.20;9.77;;;;;;;;;;4972328;28;20035;-74
2023/09/02 01:13:29;;;;;;;12.70;9.18;;;;;;;;;;4943225;28;20029;-75
2023/09/02 01:15:55;;;;;;;18.15;10.20;;;;;;;;;;4940643;28;20507;-75
2023/09/02 01:18:24;;;;;;;15.55;9.65;;;;;;;;;;4971924;28;20091;-74
2023/09/02 01:21:00;;;;;;;12.20;9.80;;;;;;;;;;4973447;28;20050;-75
2023/09/02 01:23:33;;;;;;;18.60;10.00;;;;;;;;;;4959700;28;20035;-74
2023/09/02 01:26:07;;;;;;;17.48;9.73;;;;;;;;;;4973403;28;20050;-76
2023/09/02 01:28:34;;;;;;;12.77;9.18;;;;;;;;;;4971849;28;20078;-75
2023/09/02 01:31:00;;;;;;;10.48;8.38;;;;;;;;;;4973760;28;20062;-74
2023/09/02 01:33:26;;;;;;;12.68;8.60;;;;;;;;;;4956116;28;20527;-75
2023/09/02 01:35:52;;;;;;;14.02;9.50;;;;;;;;;;4974092;28;20038;-74
2023/09/02 01:38:21;;;;;;;15.52;10.18;;;;;;;;;;4952757;29;20042;-74
2023/09/02 01:40:47;;;;;;;14.88;8.77;;;;;;;;;;4952584;28;20569;-74
2023/09/02 01:43:16;;;;;;;12.68;9.38;;;;;;;;;;4955885;28;20388;-75
2023/09/02 01:45:42;;;;;;;11.77;9.37;;;;;;;;;;4955876;28;20043;-74
2023/09/02 01:48:08;;;;;;;10.35;8.93;;;;;;;;;;4972484;28;20033;-75
2023/09/02 01:50:35;;;;;;;17.23;9.82;;;;;;;;;;4955450;28;20070;-75
2023/09/02 01:53:01;;;;;;;15.48;10.13;;;;;;;;;;4972761;28;20113;-75
2023/09/02 01:55:27;;;;;;;11.32;10.18;;;;;;;;;;4972418;28;20034;-74
2023/09/02 01:57:57;;;;;;;16.17;10.65;;;;;;;;;;4955644;28;20066;-73
2023/09/02 02:00:23;;;;;;;14.63;10.18;;;;;;;;;;4970951;28;20048;-75
2023/09/02 02:02:49;;;;;;;13.23;10.90;;;;;;;;;;4955541;28;20055;-75
2023/09/02 02:05:17;;;;;;;13.20;9.98;;;;;;;;;;4970924;28;20062;-73
2023/09/02 02:07:48;;;;;;;12.32;10.30;;;;;;;;;;4940382;28;20034;-73
2023/09/02 02:10:16;;;;;;;12.07;10.75;;;;;;;;;;4972537;28;20034;-73
2023/09/02 02:12:42;;;;;;;14.25;9.85;;;;;;;;;;4955590;28;20651;-74
2023/09/02 02:15:10;;;;;;;16.23;9.82;;;;;;;;;;4970610;28;20033;-72
2023/09/02 02:17:44;;;;;;;16.02;11.13;;;;;;;;;;4955213;28;20407;-74
2023/09/02 02:20:10;;;;;;;21.23;11.38;;;;;;;;;;4970637;28;20038;-74
2023/09/02 02:22:56;;;;;;;14.43;10.85;;;;;;;;;;4944684;28;20038;-74
2023/09/02 02:25:22;;;;;;;17.08;11.20;;;;;;;;;;4971724;28;20408;-73
2023/09/02 02:27:49;;;;;;;15.25;11.60;;;;;;;;;;4954664;28;20117;-75
2023/09/02 02:30:15;;;;;;;18.90;11.38;;;;;;;;;;4952400;29;20035;-74
2023/09/02 02:32:41;;;;;;;18.45;11.18;;;;;;;;;;4958130;28;20042;-74
2023/09/02 02:35:07;;;;;;;14.05;11.95;;;;;;;;;;4954989;28;20034;-75
2023/09/02 02:37:34;;;;;;;18.23;12.00;;;;;;;;;;4980210;28;20049;-74
2023/09/02 02:40:00;;;;;;;21.95;13.00;;;;;;;;;;4963647;28;20043;-74
2023/09/02 02:42:26;;;;;;;17.48;13.40;;;;;;;;;;4979870;28;20561;-76
2023/09/02 02:44:52;;;;;;;22.33;12.65;;;;;;;;;;4975205;28;20085;-74
2023/09/02 02:47:18;;;;;;;18.58;12.27;;;;;;;;;;4971537;28;20092;-74
2023/09/02 02:49:44;;;;;;;22.35;11.80;;;;;;;;;;4954748;28;20552;-73
2023/09/02 02:52:10;;;;;;;16.40;12.57;;;;;;;;;;4971667;28;20078;-78
2023/09/02 02:54:38;;;;;;;22.30;12.27;;;;;;;;;;4972133;28;20054;-76
2023/09/02 02:57:04;;;;;;;21.30;13.25;;;;;;;;;;4971631;28;20113;-75
2023/09/02 02:59:31;;;;;;;20.10;12.77;;;;;;;;;;4954160;28;20047;-77
2023/09/02 03:01:57;;;;;;;23.27;13.45;;;;;;;;;;4954526;28;20027;-73
2023/09/02 03:04:27;;;;;;;14.95;12.15;;;;;;;;;;4971507;28;20066;-76
2023/09/02 03:06:53;;;;;;;15.18;12.35;;;;;;;;;;4970677;28;20098;-76
2023/09/02 03:09:20;;;;;;;19.70;12.27;;;;;;;;;;4953591;28;20352;-75
2023/09/02 03:11:47;;;;;;;22.05;12.30;;;;;;;;;;4954013;28;20031;-74
2023/09/02 03:14:13;;;;;;;19.27;11.75;;;;;;;;;;4970247;28;20105;-76
2023/09/02 03:16:40;;;;;;;23.50;12.32;;;;;;;;;;4970613;28;20027;-75
2023/09/02 03:19:06;;;;;;;19.55;12.77;;;;;;;;;;4970470;28;20042;-76
2023/09/02 03:21:32;;;;;;;22.13;12.45;;;;;;;;;;4954250;28;20138;-76
2023/09/02 03:23:59;;;;;;;13.90;11.95;;;;;;;;;;4971706;28;20114;-75
2023/09/02 03:26:27;;;;;;;21.20;11.50;;;;;;;;;;4970154;28;20051;-75
2023/09/02 03:28:53;;;;;;;13.98;9.25;;;;;;;;;;4935273;29;20048;-74
2023/09/02 03:31:22;;;;;;;16.15;9.93;;;;;;;;;;4953449;28;20047;-74
2023/09/02 03:33:49;;;;;;;15.63;10.20;;;;;;;;;;4954229;28;20109;-74
2023/09/02 03:36:17;;;;;;;17.45;10.88;;;;;;;;;;4970073;28;20035;-74
2023/09/02 03:38:45;;;;;;;12.98;10.02;;;;;;;;;;4971324;28;20383;-72
2023/09/02 03:41:11;;;;;;;11.55;10.27;;;;;;;;;;4954503;28;20478;-75
2023/09/02 03:43:37;;;;;;;19.30;11.00;;;;;;;;;;4937992;28;20134;-75
2023/09/02 03:46:03;;;;;;;12.73;10.63;;;;;;;;;;4953903;28;20598;-74
2023/09/02 03:48:30;;;;;;;22.92;10.25;;;;;;;;;;4969881;28;20388;-75
2023/09/02 03:51:03;;;;;;;23.83;10.60;;;;;;;;;;4971633;28;20046;-75
2023/09/02 03:53:32;;;;;;;15.18;9.98;;;;;;;;;;4957470;28;20039;-75
2023/09/02 03:55:58;;;;;;;14.60;9.27;;;;;;;;;;4966731;28;20050;-75
2023/09/02 03:58:28;;;;;;;12.57;9.52;;;;;;;;;;4951917;28;20030;-74
2023/09/02 04:00:54;;;;;;;14.55;8.95;;;;;;;;;;4940919;28;20421;-76
2023/09/02 04:03:21;;;;;;;12.98;8.77;;;;;;;;;;4972918;28;20105;-75
2023/09/02 04:05:48;;;;;;;17.27;9.02;;;;;;;;;;4957339;28;20054;-74
2023/09/02 04:08:18;;;;;;;15.95;8.93;;;;;;;;;;4941636;28;20522;-75
2023/09/02 04:10:44;;;;;;;13.45;8.13;;;;;;;;;;4974957;28;20051;-75
2023/09/02 04:13:11;;;;;;;16.13;8.52;;;;;;;;;;4974978;28;20045;-75
2023/09/02 04:15:37;;;;;;;10.20;7.88;;;;;;;;;;4974390;28;20100;-74
2023/09/02 04:18:04;;;;;;;15.25;8.75;;;;;;;;;;4956195;28;20031;-73
2023/09/02 04:20:30;;;;;;;18.80;8.32;;;;;;;;;;4974159;28;20182;-75
2023/09/02 04:22:56;;;;;;;8.95;7.35;;;;;;;;;;4956162;28;20082;-75
2023/09/02 04:25:22;;;;;;;10.95;6.53;;;;;;;;;;4973081;28;20049;-73
2023/09/02 04:27:48;;;;;;;10.20;8.13;;;;;;;;;;4973214;28;20035;-75
2023/09/02 04:30:15;;;;;;;13.02;8.32;;;;;;;;;;4974094;28;20031;-74
2023/09/02 04:32:41;;;;;;;16.02;7.80;;;;;;;;;;4973644;28;20045;-77
2023/09/02 04:35:08;;;;;;;16.08;8.05;;;;;;;;;;4973168;28;20039;-75
2023/09/02 04:37:34;;;;;;;16.73;7.22;;;;;;;;;;4956376;28;20039;-74
2023/09/02 04:40:00;;;;;;;21.05;7.82;;;;;;;;;;4974641;28;20041;-75
2023/09/02 04:42:27;;;;;;;17.00;7.80;;;;;;;;;;4972726;28;20423;-75
2023/09/02 04:44:54;;;;;;;11.50;7.97;;;;;;;;;;4953307;29;20415;-75
2023/09/02 04:47:21;;;;;;;16.38;8.13;;;;;;;;;;4952489;28;20041;-76
2023/09/02 04:49:48;;;;;;;13.45;7.78;;;;;;;;;;4947073;28;20519;-75
2023/09/02 04:52:14;;;;;;;15.30;7.63;;;;;;;;;;4973482;28;20033;-74
2023/09/02 04:54:43;;;;;;;19.05;7.97;;;;;;;;;;4973584;28;20035;-76
2023/09/02 04:57:09;;;;;;;9.98;7.63;;;;;;;;;;4972596;28;20031;-75
2023/09/02 04:59:35;;;;;;;9.68;7.93;;;;;;;;;;4972521;28;20039;-75
2023/09/02 05:02:02;;;;;;;11.77;8.80;;;;;;;;;;4955273;28;20515;-75
2023/09/02 05:04:31;;;;;;;10.25;8.52;;;;;;;;;;4972365;28;20157;-74
2023/09/02 05:06:57;;;;;;;12.82;8.27;;;;;;;;;;4959683;28;20030;-75
2023/09/02 05:09:23;;;;;;;13.15;8.90;;;;;;;;;;4973203;28;20532;-74
2023/09/02 05:11:49;;;;;;;15.23;9.00;;;;;;;;;;4956342;28;20035;-75
2023/09/02 05:14:15;;;;;;;14.68;8.75;;;;;;;;;;4956041;28;20026;-76
2023/09/02 05:16:42;;;;;;;12.30;8.32;;;;;;;;;;4940221;28;20572;-76
2023/09/02 05:19:09;;;;;;;16.95;8.07;;;;;;;;;;4955877;28;20574;-76
2023/09/02 05:21:35;;;;;;;16.42;8.85;;;;;;;;;;4955942;28;20034;-75
2023/09/02 05:24:03;;;;;;;14.73;8.07;;;;;;;;;;4963246;28;20547;-75
2023/09/02 05:26:29;;;;;;;9.93;6.50;;;;;;;;;;4966587;28;20086;-75
2023/09/02 05:28:55;;;;;;;14.52;7.95;;;;;;;;;;4940311;28;20097;-75
2023/09/02 05:31:22;;;;;;;15.38;8.55;;;;;;;;;;4956281;28;20035;-76
2023/09/02 05:33:48;;;;;;;13.65;8.43;;;;;;;;;;4959850;28;20093;-76
2023/09/02 05:36:14;;;;;;;19.67;8.60;;;;;;;;;;4965501;28;20035;-75
2023/09/02 05:38:40;;;;;;;14.05;8.25;;;;;;;;;;4985735;28;20404;-76
2023/09/02 05:41:06;;;;;;;14.60;8.15;;;;;;;;;;4985158;28;20039;-75
2023/09/02 05:43:32;;;;;;;17.80;8.43;;;;;;;;;;4940340;28;20034;-75
2023/09/02 05:45:59;;;;;;;13.27;8.55;;;;;;;;;;4972974;28;20061;-76
2023/09/02 05:48:25;;;;;;;8.38;7.53;;;;;;;;;;4955405;28;20039;-75
2023/09/02 05:50:55;;;;;;;8.98;8.07;;;;;;;;;;4939522;28;20041;-76
2023/09/02 05:53:21;;;;;;;18.90;7.80;;;;;;;;;;4980283;28;20066;-76
2023/09/02 05:55:54;;;;;;;10.25;7.85;;;;;;;;;;4972544;28;20214;-77
2023/09/02 05:58:21;;;;;;;13.07;8.48;;;;;;;;;;4951991;28;20412;-78
2023/09/02 06:00:48;;;;;;;9.80;8.07;;;;;;;;;;4972548;28;20042;-76
2023/09/02 06:03:14;;;;;;;12.73;7.70;;;;;;;;;;4942654;28;20055;-77
2023/09/02 06:05:40;;;;;;;8.52;7.72;;;;;;;;;;4954908;28;20050;-76
2023/09/02 06:08:06;;;;;;;14.82;7.85;;;;;;;;;;4972671;28;20066;-76
2023/09/02 06:10:32;;;;;;;8.68;7.70;;;;;;;;;;4955068;28;20122;-76
2023/09/02 06:12:58;;;;;;;10.30;8.05;;;;;;;;;;4971941;28;20093;-75
2023/09/02 06:15:24;;;;;;;11.82;8.68;;;;;;;;;;4972108;28;20212;-75
2023/09/02 06:17:50;;;;;;;10.15;8.93;;;;;;;;;;4972398;28;20097;-75
2023/09/02 06:20:20;;;;;;;13.73;8.20;;;;;;;;;;4972256;28;20042;-73
2023/09/02 06:22:46;;;;;;;15.50;7.87;;;;;;;;;;4972084;28;20411;-75
2023/09/02 06:25:12;;;;;;;10.15;8.15;;;;;;;;;;4938742;28;20080;-75
2023/09/02 06:27:38;;;;;;;24.60;8.55;;;;;;;;;;4971569;28;20093;-76
2023/09/02 06:30:05;;;;;;;11.73;8.18;;;;;;;;;;4954884;28;20038;-75
2023/09/02 06:32:31;;;;;;;10.15;8.55;;;;;;;;;;4971961;28;20034;-76
2023/09/02 06:34:57;;;;;;;14.63;9.25;;;;;;;;;;4954783;28;20046;-77
2023/09/02 06:37:28;;;;;;;12.90;9.05;;;;;;;;;;4971887;28;20534;-75
2023/09/02 06:39:55;;;;;;;14.82;8.25;;;;;;;;;;4955117;28;20049;-76
2023/09/02 06:42:22;;;;;;;12.18;7.50;;;;;;;;;;4958826;28;20019;-76
2023/09/02 06:44:52;;;;;;;9.05;7.15;;;;;;;;;;4971215;28;20050;-76
2023/09/02 06:47:20;;;;;;;10.65;7.30;;;;;;;;;;4968856;28;20102;-77
2023/09/02 06:49:46;;;;;;;14.43;6.38;;;;;;;;;;4961716;28;20042;-76
2023/09/02 06:52:12;;;;;;;16.00;8.07;;;;;;;;;;4971661;28;20038;-77
2023/09/02 06:54:38;;;;;;;13.90;7.82;;;;;;;;;;4954378;28;20932;-76
2023/09/02 06:57:04;;;;;;;13.43;8.10;;;;;;;;;;4971924;28;20128;-75
2023/09/02 06:59:30;;;;;;;18.02;7.63;;;;;;;;;;4961947;28;20113;-76
2023/09/02 07:01:57;;;;;;;13.60;8.30;;;;;;;;;;4950455;28;20116;-76
2023/09/02 07:04:26;;;;;;;15.32;7.75;;;;;;;;;;4970850;28;20523;-77
2023/09/02 07:06:51;;;;;;;15.95;8.43;;;;;;;;;;4938858;28;20053;-77
2023/09/02 07:09:18;;;;;;;12.48;7.32;;;;;;;;;;4977603;28;20046;-77
2023/09/02 07:11:44;;;;;;;19.35;8.55;;;;;;;;;;4957599;28;20042;-75
2023/09/02 07:14:10;;;;;;;19.20;8.93;;;;;;;;;;4934988;29;20380;-78
2023/09/02 07:16:36;;;;;;;14.93;9.07;;;;;;;;;;4968281;28;20141;-77
2023/09/02 07:19:03;;;;;;;22.23;9.40;;;;;;;;;;4972006;28;20062;-77
2023/09/02 07:21:29;;;;;;;16.52;9.35;;;;;;;;;;4935284;29;20039;-77
2023/09/02 07:23:55;;;;;;;21.98;10.25;;;;;;;;;;4954926;28;20455;-76
2023/09/02 07:26:21;;;;;;;35.00;10.63;;;;;;;;;;4957595;28;20039;-77
2023/09/02 07:28:48;;;;;;;12.40;9.30;;;;;;;;;;4939049;29;20086;-77
2023/09/02 07:31:14;;;;;;;16.77;8.43;;;;;;;;;;4958425;28;20038;-77
2023/09/02 07:33:43;;;;;;;25.60;9.40;;;;;;;;;;4926760;28;20527;-78
2023/09/02 07:36:09;;;;;;;23.52;9.98;;;;;;;;;;4970634;28;20400;-77
2023/09/02 07:38:36;;;;;;;24.20;9.68;;;;;;;;;;4966631;28;20042;-76
2023/09/02 07:41:02;;;;;;;17.90;9.40;;;;;;;;;;4974813;28;20043;-76
2023/09/02 07:43:28;;;;;;;18.42;9.15;;;;;;;;;;4974536;28;20042;-77
2023/09/02 07:45:55;;;;;;;15.45;9.90;;;;;;;;;;4974683;28;20039;-77
2023/09/02 07:48:21;;;;;;;19.58;9.82;;;;;;;;;;4974960;28;20034;-79
2023/09/02 07:50:47;;;;;;;17.40;9.45;;;;;;;;;;4936656;29;20027;-76
2023/09/02 07:53:16;;;;;;;12.90;9.30;;;;;;;;;;4950219;28;20042;-76
2023/09/02 07:55:42;;;;;;;19.88;8.45;;;;;;;;;;4956740;28;20550;-77
2023/09/02 07:58:08;;;;;;;12.90;9.02;;;;;;;;;;4957614;28;20038;-77
2023/09/02 08:00:35;;;;;;;17.23;8.68;;;;;;;;;;4974492;28;20093;-77
2023/09/02 08:03:02;;;;;;;14.00;9.43;;;;;;;;;;4919641;29;20055;-77
2023/09/02 08:05:28;;;;;;;23.50;10.57;;;;;;;;;;4952581;28;20093;-77
2023/09/02 08:07:54;;;;;;;21.80;9.55;;;;;;;;;;4955461;29;20173;-76
2023/09/02 08:10:20;;;;;;;19.10;10.32;;;;;;;;;;4955110;28;20035;-77
2023/09/02 08:12:46;;;;;;;25.17;10.02;;;;;;;;;;4953631;29;20556;-77
2023/09/02 08:15:12;;;;;;;15.60;9.18;;;;;;;;;;4953662;29;20041;-77
2023/09/02 08:17:41;;;;;;;18.50;10.07;;;;;;;;;;4955084;28;20448;-76
2023/09/02 08:20:11;;;;;;;23.83;9.80;;;;;;;;;;4954984;28;20041;-76
2023/09/02 08:22:39;;;;;;;17.17;9.65;;;;;;;;;;4953606;29;20031;-77
2023/09/02 08:25:06;;;;;;;22.85;9.35;;;;;;;;;;4953362;28;20523;-76
2023/09/02 08:27:32;;;;;;;15.02;8.73;;;;;;;;;;4937767;29;20035;-77
2023/09/02 08:29:58;;;;;;;12.60;8.98;;;;;;;;;;4955725;29;20086;-77
2023/09/02 08:32:24;;;;;;;18.88;8.82;;;;;;;;;;4962703;28;20063;-75
2023/09/02 08:34:50;;;;;;;17.10;9.45;;;;;;;;;;4966382;29;20039;-75
2023/09/02 08:37:16;;;;;;;11.90;9.07;;;;;;;;;;4958360;28;20035;-76
2023/09/02 08:39:42;;;;;;;16.77;9.45;;;;;;;;;;4954974;29;20194;-76
2023/09/02 08:42:08;;;;;;;15.88;9.73;;;;;;;;;;4953463;28;20406;-76
2023/09/02 08:44:35;;;;;;;18.52;9.93;;;;;;;;;;4954353;28;20042;-77
2023/09/02 08:47:01;;;;;;;18.10;9.75;;;;;;;;;;4953181;28;20060;-76
2023/09/02 08:49:27;;;;;;;20.55;9.95;;;;;;;;;;4953206;28;20041;-76
2023/09/02 08:51:54;;;;;;;15.18;10.25;;;;;;;;;;4952776;28;20050;-77
2023/09/02 08:54:20;;;;;;;32.35;10.52;;;;;;;;;;4953210;28;20038;-76
2023/09/02 08:56:46;;;;;;;16.77;9.82;;;;;;;;;;4952998;28;20039;-77
2023/09/02 08:59:12;;;;;;;20.05;10.27;;;;;;;;;;4953409;29;20039;-76
2023/09/02 09:01:43;;;;;;;20.77;10.25;;;;;;;;;;4952674;28;20458;-76
2023/09/02 09:04:09;;;;;;;20.65;10.55;;;;;;;;;;4971125;28;20050;-77
2023/09/02 09:06:36;;;;;;;24.73;11.20;;;;;;;;;;4956022;28;20047;-77
2023/09/02 09:09:02;;;;;;;21.38;11.43;;;;;;;;;;4972176;28;20079;-76
2023/09/02 09:11:32;;;;;;;22.13;10.90;;;;;;;;;;4940494;28;20582;-76
2023/09/02 09:14:01;;;;;;;21.00;11.40;;;;;;;;;;4956957;28;20037;-77
2023/09/02 09:16:31;;;;;;;30.60;11.43;;;;;;;;;;4972041;28;20039;-76
2023/09/02 09:18:57;;;;;;;25.23;11.27;;;;;;;;;;4956460;28;20037;-77
2023/09/02 09:21:23;;;;;;;29.88;12.95;;;;;;;;;;4955810;28;20102;-77
2023/09/02 09:23:49;;;;;;;24.92;12.27;;;;;;;;;;4973488;28;20130;-77
2023/09/02 09:26:15;;;;;;;31.45;13.95;;;;;;;;;;4955589;28;20073;-78
2023/09/02 09:28:48;;;;;;;27.00;12.70;;;;;;;;;;4939411;28;20118;-78
2023/09/02 09:31:17;;;;;;;31.67;13.50;;;;;;;;;;4956269;28;20100;-78
2023/09/02 09:33:50;;;;;;;26.37;13.57;;;;;;;;;;4972710;28;20039;-77
2023/09/02 09:36:17;;;;;;;33.40;13.73;;;;;;;;;;4955731;28;20290;-78
2023/09/02 09:38:43;;;;;;;27.40;13.48;;;;;;;;;;4955514;28;20078;-78
2023/09/02 09:41:09;;;;;;;29.55;14.30;;;;;;;;;;4973025;28;20109;-77
2023/09/02 09:43:35;;;;;;;21.75;13.15;;;;;;;;;;4971029;28;20031;-77
2023/09/02 09:46:01;;;;;;;23.02;12.95;;;;;;;;;;4972497;28;20581;-77
2023/09/02 09:48:27;;;;;;;21.70;12.55;;;;;;;;;;4971203;28;20027;-78
2023/09/02 09:50:53;;;;;;;24.02;13.27;;;;;;;;;;4954695;28;20034;-79
2023/09/02 09:53:19;;;;;;;15.35;13.65;;;;;;;;;;4955580;28;20050;-78
2023/09/02 09:55:45;;;;;;;28.17;12.95;;;;;;;;;;4970994;28;20043;-77
2023/09/02 09:58:12;;;;;;;28.30;14.10;;;;;;;;;;4954980;28;20089;-78
2023/09/02 10:00:38;;;;;;;16.58;12.88;;;;;;;;;;4954738;28;20035;-78
2023/09/02 10:03:04;;;;;;;29.60;14.48;;;;;;;;;;4973039;28;20051;-76
2023/09/02 10:05:30;;;;;;;22.85;13.55;;;;;;;;;;4937099;29;20154;-77
2023/09/02 10:08:00;;;;;;;21.98;14.68;;;;;;;;;;4936222;29;20031;-76
2023/09/02 10:10:27;;;;;;;19.63;14.00;;;;;;;;;;4936128;29;20042;-76
2023/09/02 10:12:53;;;;;;;22.95;14.75;;;;;;;;;;4966601;28;20521;-78
2023/09/02 10:15:25;;;;;;;25.70;14.48;;;;;;;;;;4956378;28;20129;-77
2023/09/02 10:17:52;;;;;;;21.92;14.95;;;;;;;;;;4952719;28;20074;-75
2023/09/02 10:20:19;;;;;;;25.40;14.23;;;;;;;;;;4940721;28;20034;-76
2023/09/02 10:22:45;;;;;;;22.38;15.40;;;;;;;;;;4974418;28;20578;-77
2023/09/02 10:25:13;;;;;;;32.67;14.90;;;;;;;;;;4957357;28;20739;-77
2023/09/02 10:27:40;;;;;;;40.35;15.40;;;;;;;;;;4974278;28;20085;-77
2023/09/02 10:30:06;;;;;;;23.73;15.23;;;;;;;;;;4973683;28;20038;-76
2023/09/02 10:32:36;;;;;;;30.25;15.65;;;;;;;;;;4957404;28;20073;-76
2023/09/02 10:35:09;;;;;;;29.85;15.18;;;;;;;;;;4957308;28;20201;-75
2023/09/02 10:37:42;;;;;;;25.05;15.98;;;;;;;;;;4973778;28;20037;-76
2023/09/02 10:40:08;;;;;;;25.83;16.90;;;;;;;;;;4957651;28;20415;-77
2023/09/02 10:42:34;;;;;;;24.92;15.68;;;;;;;;;;4956766;28;20037;-76
2023/09/02 10:45:00;;;;;;;26.67;16.05;;;;;;;;;;4975301;28;20039;-76
2023/09/02 10:47:26;;;;;;;27.70;15.15;;;;;;;;;;4972598;28;20039;-76
2023/09/02 10:49:53;;;;;;;29.98;15.48;;;;;;;;;;4970799;28;20396;-76
2023/09/02 10:52:19;;;;;;;25.15;17.17;;;;;;;;;;4938726;28;20090;-76
2023/09/02 10:55:04;;;;;;;26.73;16.27;;;;;;;;;;4972083;28;20041;-75
2023/09/02 10:57:46;;;;;;;22.70;16.38;;;;;;;;;;4954161;28;20048;-77
2023/09/02 11:00:12;;;;;;;23.38;17.10;;;;;;;;;;4953395;28;20039;-77
2023/09/02 11:02:39;;;;;;;21.10;16.65;;;;;;;;;;4954434;28;20214;-75
2023/09/02 11:05:05;;;;;;;28.00;18.35;;;;;;;;;;4954468;28;20039;-77
2023/09/02 11:07:33;;;;;;;25.02;17.60;;;;;;;;;;4971908;28;20039;-80
2023/09/02 11:10:00;;;;;;;23.02;17.48;;;;;;;;;;4979342;28;20038;-83
2023/09/02 11:12:27;;;;;;;31.23;18.92;;;;;;;;;;4957837;28;20523;-82
2023/09/02 11:15:08;;;;;;;35.67;18.60;;;;;;;;;;4975053;28;20035;-80
2023/09/02 11:17:35;;;;;;;32.60;18.52;;;;;;;;;;4940476;28;20495;-81
2023/09/02 11:20:02;;;;;;;32.38;18.13;;;;;;;;;;4972264;28;20037;-80
2023/09/02 11:22:50;;;;;;;27.13;18.63;;;;;;;;;;4955002;28;20049;-79
2023/09/02 11:25:29;;;;;;;27.80;19.33;;;;;;;;;;4955613;28;20070;-79
2023/09/02 11:27:56;;;;;;;26.33;18.33;;;;;;;;;;4972922;28;20085;-77
2023/09/02 11:30:23;;;;;;;32.28;18.25;;;;;;;;;;4962471;28;20035;-77
2023/09/02 11:32:49;;;;;;;26.75;18.65;;;;;;;;;;4981711;28;20046;-79
2023/09/02 11:35:16;;;;;;;34.10;18.80;;;;;;;;;;4987130;28;20043;-84
2023/09/02 11:37:42;;;;;;;22.75;18.23;;;;;;;;;;5340176;23;20039;-87
2023/09/02 11:40:15;;;;;;;34.80;19.20;;;;;;;;;;5000348;28;20046;-86
2023/09/02 11:45:32;;;;;;;33.28;21.75;;;;;;;;;;5376200;23;20043;-86
2023/09/02 11:47:58;;;;;;;38.67;22.73;;;;;;;;;;5222330;23;20038;-86
2023/09/02 11:50:24;;;;;;;31.15;22.33;;;;;;;;;;5036828;28;20068;-87
2023/09/02 11:52:54;;;;;;;34.50;21.90;;;;;;;;;;5016307;28;20025;-85
2023/09/02 11:55:20;;;;;;;35.78;21.25;;;;;;;;;;5194591;23;20109;-84
2023/09/02 11:57:46;;;;;;;31.25;21.67;;;;;;;;;;4999648;28;20042;-83
2023/09/02 12:00:19;;;;;;;34.90;21.20;;;;;;;;;;5012937;28;20049;-83
2023/09/02 12:02:45;;;;;;;35.38;22.73;;;;;;;;;;5023299;28;20014;-82
2023/09/02 12:05:12;;;;;;;29.23;20.95;;;;;;;;;;5005757;28;20042;-85
2023/09/02 12:10:33;;;;;;;33.63;20.80;;;;;;;;;;5659454;23;20038;-86
2023/09/02 12:12:59;;;;;;;29.83;21.33;;;;;;;;;;5003268;28;20023;-84
2023/09/02 12:15:26;;;;;;;31.48;21.13;;;;;;;;;;5018763;28;20090;-84
2023/09/02 12:17:51;;;;;;;32.80;19.77;;;;;;;;;;4987317;28;20094;-84
2023/09/02 12:20:17;;;;;;;26.48;20.30;;;;;;;;;;5017136;28;20046;-85
2023/09/02 12:22:44;;;;;;;37.47;23.83;;;;;;;;;;5217400;23;20347;-81
2023/09/02 12:25:10;;;;;;;29.13;18.05;;;;;;;;;;5078867;23;20042;-83
2023/09/02 12:27:36;;;;;;;22.58;17.48;;;;;;;;;;5232546;22;21047;-84
2023/09/02 12:30:03;;;;;;;24.35;17.33;;;;;;;;;;5585629;23;20059;-88
2023/09/02 12:32:32;;;;;;;30.08;17.77;;;;;;;;;;4999555;28;20046;-85
2023/09/02 12:34:58;;;;;;;29.45;19.33;;;;;;;;;;5132714;23;20039;-86
2023/09/02 12:37:24;;;;;;;24.58;19.55;;;;;;;;;;4998716;28;20029;-85
2023/09/02 12:39:50;;;;;;;28.90;19.23;;;;;;;;;;4999005;28;20043;-84
2023/09/02 12:42:17;;;;;;;25.67;19.48;;;;;;;;;;5165493;23;20459;-87
2023/09/02 12:44:50;;;;;;;24.67;19.30;;;;;;;;;;4984548;28;20035;-84
2023/09/02 12:47:17;;;;;;;26.55;18.10;;;;;;;;;;4980879;28;20074;-82
2023/09/02 12:49:46;;;;;;;19.90;14.90;;;;;;;;;;4977348;28;20030;-84
2023/09/02 12:55:03;;;;;;;26.30;16.58;;;;;;;;;;5033388;23;20050;-85
2023/09/02 12:57:32;;;;;;;25.53;17.87;;;;;;;;;;4981578;28;20043;-85
2023/09/02 12:59:58;;;;;;;27.70;18.65;;;;;;;;;;4996680;28;20523;-86
2023/09/02 13:02:25;;;;;;;25.65;16.77;;;;;;;;;;4993654;28;20065;-80
2023/09/02 13:04:54;;;;;;;21.30;17.15;;;;;;;;;;4990526;28;20042;-81
2023/09/02 13:07:20;;;;;;;25.27;16.23;;;;;;;;;;4974748;28;20054;-80
2023/09/02 13:09:46;;;;;;;28.58;18.38;;;;;;;;;;4959355;28;20096;-81
2023/09/02 13:12:12;;;;;;;27.65;18.55;;;;;;;;;;4979108;28;20074;-81
2023/09/02 13:14:39;;;;;;;19.88;15.35;;;;;;;;;;4999771;28;20043;-81
2023/09/02 13:17:06;;;;;;;22.27;17.40;;;;;;;;;;4946802;28;20034;-81
2023/09/02 13:19:32;;;;;;;19.42;14.18;;;;;;;;;;4997470;28;20042;-82
2023/09/02 13:21:58;;;;;;;19.85;14.30;;;;;;;;;;4993731;28;20056;-84
2023/09/02 13:24:24;;;;;;;16.52;13.70;;;;;;;;;;4975509;28;20414;-80
2023/09/02 13:26:50;;;;;;;24.15;14.60;;;;;;;;;;4976794;28;20536;-81
2023/09/02 13:29:17;;;;;;;19.92;14.63;;;;;;;;;;4976757;28;20026;-81
2023/09/02 13:31:43;;;;;;;16.83;14.65;;;;;;;;;;4976387;28;20049;-81
2023/09/02 13:34:18;;;;;;;21.15;16.05;;;;;;;;;;4976564;28;20101;-82
2023/09/02 13:36:47;;;;;;;21.83;17.58;;;;;;;;;;4977215;28;20034;-82
2023/09/02 13:39:13;;;;;;;18.20;16.30;;;;;;;;;;4977530;28;20041;-83
2023/09/02 13:41:39;;;;;;;20.98;17.48;;;;;;;;;;4993512;28;20022;-82
2023/09/02 13:44:05;;;;;;;22.05;16.42;;;;;;;;;;4993305;28;20038;-81
2023/09/02 13:46:31;;;;;;;18.98;15.82;;;;;;;;;;4944499;28;20053;-82
2023/09/02 13:48:57;;;;;;;23.20;18.10;;;;;;;;;;4991527;28;20045;-82
2023/09/02 13:51:24;;;;;;;27.13;18.73;;;;;;;;;;4984397;28;20042;-82
2023/09/02 13:53:52;;;;;;;20.02;17.33;;;;;;;;;;4947276;28;20530;-81
2023/09/02 13:56:18;;;;;;;20.05;17.17;;;;;;;;;;4966378;28;20583;-80
2023/09/02 13:58:46;;;;;;;25.67;16.73;;;;;;;;;;4973515;28;20046;-80
2023/09/02 14:01:12;;;;;;;25.58;18.75;;;;;;;;;;4973638;28;20130;-82
2023/09/02 14:03:38;;;;;;;26.52;19.08;;;;;;;;;;4973929;28;20699;-82
2023/09/02 14:06:05;;;;;;;25.65;19.75;;;;;;;;;;4978602;28;20042;-82
2023/09/02 14:08:34;;;;;;;33.85;22.15;;;;;;;;;;4994480;28;20041;-81
2023/09/02 14:11:01;;;;;;;23.17;17.42;;;;;;;;;;4994267;28;20042;-81
2023/09/02 14:13:27;;;;;;;29.60;18.90;;;;;;;;;;4971473;28;20039;-79
2023/09/02 14:15:53;;;;;;;19.77;16.77;;;;;;;;;;4978982;28;20112;-80
2023/09/02 14:18:18;;;;;;;18.50;15.35;;;;;;;;;;4990617;28;20554;-81
2023/09/02 14:20:45;;;;;;;85.10;67.13;;;;;;;;;;4974329;28;20459;-81
2023/09/02 14:23:11;;;;;;;21.10;16.63;;;;;;;;;;4974751;28;20504;-82
2023/09/02 14:25:37;;;;;;;23.60;16.83;;;;;;;;;;4975601;28;20483;-81
2023/09/02 14:28:03;;;;;;;22.15;18.58;;;;;;;;;;4988939;28;20058;-78
2023/09/02 14:30:30;;;;;;;31.77;19.63;;;;;;;;;;4970286;28;20046;-80